createdAt,value
2023-05-04T00:00:04.253Z,79
2023-05-04T00:03:29.388Z,79
2023-05-04T00:06:54.555Z,79
2023-05-04T00:10:19.748Z,78
2023-05-04T00:13:44.991Z,79
2023-05-04T00:17:10.204Z,79
2023-05-04T00:20:35.442Z,79
2023-05-04T00:24:00.686Z,79
2023-05-04T00:27:25.880Z,79
2023-05-04T00:30:51.165Z,79
2023-05-04T00:34:16.415Z,79
2023-05-04T00:37:41.655Z,79
2023-05-04T00:41:06.873Z,79
2023-05-04T00:44:32.107Z,79
2023-05-04T00:47:57.386Z,80
2023-05-04T00:51:22.588Z,79
2023-05-04T00:54:47.834Z,79
2023-05-04T00:58:13.036Z,79
2023-05-04T01:01:38.293Z,80
2023-05-04T01:05:03.475Z,80
2023-05-04T01:08:28.680Z,79
2023-05-04T01:11:53.895Z,79
2023-05-04T01:15:19.122Z,79
2023-05-04T01:18:44.359Z,79
2023-05-04T01:22:09.657Z,79
2023-05-04T01:25:34.850Z,79
2023-05-04T01:29:00.071Z,79
2023-05-04T01:32:25.291Z,79
2023-05-04T01:35:50.483Z,79
2023-05-04T01:39:15.715Z,78
2023-05-04T01:42:40.873Z,79
2023-05-04T01:46:06.126Z,79
2023-05-04T01:49:31.314Z,79
2023-05-04T01:52:56.598Z,79
2023-05-04T01:56:21.932Z,79
2023-05-04T01:59:47.118Z,80
2023-05-04T02:03:12.356Z,80
2023-05-04T02:06:37.534Z,79
2023-05-04T02:10:02.976Z,80
2023-05-04T02:13:27.953Z,80
2023-05-04T02:16:53.143Z,80
2023-05-04T02:20:18.351Z,80
2023-05-04T02:23:43.598Z,79
2023-05-04T02:27:08.886Z,79
2023-05-04T02:30:34.270Z,79
2023-05-04T02:33:59.387Z,79
2023-05-04T02:37:24.664Z,79
2023-05-04T02:40:49.944Z,79
2023-05-04T02:44:15.137Z,79
2023-05-04T02:47:40.475Z,79
2023-05-04T02:51:05.626Z,79
2023-05-04T02:54:30.837Z,79
2023-05-04T02:57:56.104Z,79
2023-05-04T03:01:21.329Z,78
2023-05-04T03:04:46.753Z,78
2023-05-04T03:08:11.768Z,78
2023-05-04T03:11:36.977Z,78
2023-05-04T03:15:02.192Z,78
2023-05-04T03:18:27.468Z,78
2023-05-04T03:21:52.708Z,79
2023-05-04T03:25:17.872Z,78
2023-05-04T03:28:43.047Z,79
2023-05-04T03:32:08.312Z,78
2023-05-04T03:35:33.604Z,78
2023-05-04T03:38:58.908Z,78
2023-05-04T03:42:24.105Z,79
2023-05-04T03:45:49.343Z,78
2023-05-04T03:49:14.586Z,78
2023-05-04T03:52:39.780Z,78
2023-05-04T03:56:05.156Z,78
2023-05-04T03:59:31.188Z,78
2023-05-04T04:02:56.492Z,78
2023-05-04T04:06:21.695Z,79
2023-05-04T04:09:46.901Z,79
2023-05-04T04:13:12.306Z,79
2023-05-04T04:16:37.481Z,79
2023-05-04T04:20:02.800Z,79
2023-05-04T04:23:27.825Z,79
2023-05-04T04:26:53.022Z,79
2023-05-04T04:30:18.251Z,80
2023-05-04T04:33:43.384Z,80
2023-05-04T04:37:08.613Z,80
2023-05-04T04:40:33.803Z,80
2023-05-04T04:43:59.050Z,80
2023-05-04T04:47:24.303Z,79
2023-05-04T04:50:49.470Z,79
2023-05-04T04:54:14.679Z,79
2023-05-04T04:57:39.882Z,78
2023-05-04T05:01:05.164Z,77
2023-05-04T05:04:30.478Z,77
2023-05-04T05:07:55.625Z,75
2023-05-04T05:11:20.868Z,74
2023-05-04T05:14:46.068Z,73
2023-05-04T05:18:11.381Z,73
2023-05-04T05:21:36.514Z,73
2023-05-04T05:25:01.729Z,73
2023-05-04T05:28:26.921Z,73
2023-05-04T05:31:52.114Z,73
2023-05-04T05:35:17.340Z,74
2023-05-04T05:38:42.545Z,74
2023-05-04T05:42:07.723Z,75
2023-05-04T05:45:32.957Z,73
2023-05-04T05:48:58.241Z,73
2023-05-04T05:52:23.433Z,73
2023-05-04T05:55:48.614Z,73
2023-05-04T05:59:13.804Z,74
2023-05-04T06:02:39.083Z,74
2023-05-04T06:06:04.206Z,74
2023-05-04T06:09:29.437Z,71
2023-05-04T06:12:54.656Z,72
2023-05-04T06:16:19.841Z,71
2023-05-04T06:19:45.032Z,69
2023-05-04T06:23:10.264Z,68
2023-05-04T06:26:35.464Z,72
2023-05-04T06:30:00.700Z,69
2023-05-04T06:33:25.916Z,67
2023-05-04T06:36:51.128Z,68
2023-05-04T06:40:16.322Z,68
2023-05-04T06:43:41.555Z,68
2023-05-04T06:47:06.862Z,67
2023-05-04T06:50:31.968Z,67
2023-05-04T06:53:57.219Z,68
2023-05-04T06:57:22.406Z,68
2023-05-04T07:00:47.614Z,69
2023-05-04T07:04:12.861Z,68
2023-05-04T07:07:38.052Z,69
2023-05-04T07:11:03.282Z,67
2023-05-04T07:14:28.497Z,67
2023-05-04T07:17:53.713Z,67
2023-05-04T07:21:27.341Z,67
2023-05-04T07:24:44.148Z,67
2023-05-04T07:28:09.377Z,65
2023-05-04T07:31:34.637Z,66
2023-05-04T07:34:59.869Z,66
2023-05-04T07:38:25.246Z,64
2023-05-04T07:41:50.344Z,65
2023-05-04T07:45:15.572Z,67
2023-05-04T07:48:40.816Z,66
2023-05-04T07:52:06.078Z,64
2023-05-04T07:55:31.431Z,64
2023-05-04T07:58:56.531Z,64
2023-05-04T08:02:21.831Z,62
2023-05-04T08:05:47.003Z,61
2023-05-04T08:09:12.233Z,63
2023-05-04T08:12:37.525Z,64
2023-05-04T08:16:02.691Z,61
2023-05-04T08:19:27.909Z,60
2023-05-04T08:22:53.164Z,61
2023-05-04T08:26:18.390Z,61
2023-05-04T08:29:43.705Z,59
2023-05-04T08:33:08.885Z,59
2023-05-04T08:36:34.070Z,60
2023-05-04T08:39:59.334Z,57
2023-05-04T08:43:24.580Z,59
2023-05-04T08:46:49.916Z,56
2023-05-04T08:50:14.986Z,58
2023-05-04T08:53:40.243Z,59
2023-05-04T08:57:05.498Z,56
2023-05-04T09:00:30.708Z,55
2023-05-04T09:03:55.995Z,56
2023-05-04T09:07:21.148Z,56
2023-05-04T09:10:46.356Z,58
2023-05-04T09:14:11.595Z,55
2023-05-04T09:17:42.111Z,56
2023-05-04T09:21:02.157Z,55
2023-05-04T09:24:27.360Z,56
2023-05-04T09:27:52.639Z,53
2023-05-04T09:31:17.897Z,55
2023-05-04T09:34:43.056Z,51
2023-05-04T09:38:08.343Z,52
2023-05-04T09:41:33.511Z,51
2023-05-04T09:44:58.719Z,52
2023-05-04T09:48:23.938Z,53
2023-05-04T09:51:49.117Z,50
2023-05-04T09:55:14.374Z,52
2023-05-04T09:58:39.561Z,52
2023-05-04T10:02:14.363Z,49
2023-05-04T10:05:30.007Z,47
2023-05-04T10:08:55.225Z,53
2023-05-04T10:12:20.480Z,52
2023-05-04T10:15:45.654Z,46
2023-05-04T10:19:10.882Z,50
2023-05-04T10:22:36.065Z,52
2023-05-04T10:26:01.285Z,49
2023-05-04T10:29:26.537Z,49
2023-05-04T10:32:51.762Z,50
2023-05-04T10:36:16.931Z,48
2023-05-04T10:39:42.183Z,47
2023-05-04T10:43:07.396Z,50
2023-05-04T10:46:32.699Z,47
2023-05-04T10:49:57.806Z,44
2023-05-04T10:53:23.014Z,45
2023-05-04T10:56:48.230Z,44
2023-05-04T11:00:13.453Z,47
2023-05-04T11:03:38.755Z,42
2023-05-04T11:07:03.859Z,45
2023-05-04T11:10:29.060Z,45
2023-05-04T11:13:54.268Z,45
2023-05-04T11:17:27.952Z,44
2023-05-04T11:20:44.713Z,42
2023-05-04T11:24:09.885Z,46
2023-05-04T11:27:35.103Z,45
2023-05-04T11:31:00.342Z,42
2023-05-04T11:34:25.561Z,42
2023-05-04T11:37:51.104Z,40
2023-05-04T11:41:16.109Z,42
2023-05-04T11:44:41.328Z,41
2023-05-04T11:48:06.579Z,39
2023-05-04T11:51:31.782Z,40
2023-05-04T11:54:57.039Z,40
2023-05-04T11:58:22.204Z,40
2023-05-04T12:01:47.437Z,41
2023-05-04T12:05:12.720Z,40
2023-05-04T12:08:37.953Z,41
2023-05-04T12:12:03.268Z,48
2023-05-04T12:15:28.371Z,39
2023-05-04T12:18:53.604Z,42
2023-05-04T12:22:18.804Z,40
2023-05-04T12:25:51.208Z,38
2023-05-04T12:29:09.210Z,40
2023-05-04T12:32:34.399Z,39
2023-05-04T12:35:59.592Z,40
2023-05-04T12:39:24.844Z,41
2023-05-04T12:42:49.983Z,45
2023-05-04T12:46:15.252Z,45
2023-05-04T12:49:40.428Z,45
2023-05-04T12:53:05.652Z,44
2023-05-04T12:56:30.868Z,42
2023-05-04T12:59:56.090Z,41
2023-05-04T13:03:21.383Z,41
2023-05-04T13:06:48.271Z,40
2023-05-04T13:10:11.813Z,41
2023-05-04T13:13:37.009Z,42
2023-05-04T13:17:02.267Z,43
2023-05-04T13:20:27.547Z,45
2023-05-04T13:23:52.791Z,42
2023-05-04T13:27:18.045Z,43
2023-05-04T13:30:43.282Z,42
2023-05-04T13:34:08.527Z,41
2023-05-04T13:37:33.780Z,45
2023-05-04T13:40:58.957Z,43
2023-05-04T13:44:24.146Z,46
2023-05-04T13:47:49.347Z,40
2023-05-04T13:51:14.549Z,40
2023-05-04T13:54:39.897Z,39
2023-05-04T13:58:05.094Z,43
2023-05-04T14:01:30.350Z,39
2023-05-04T14:04:55.717Z,41
2023-05-04T14:08:27.715Z,44
2023-05-04T14:11:52.958Z,43
2023-05-04T14:15:44.569Z,44
2023-05-04T14:19:09.814Z,42
2023-05-04T14:22:37.967Z,42
2023-05-04T14:26:01.686Z,38
2023-05-04T14:29:26.965Z,41
2023-05-04T14:32:52.240Z,41
2023-05-04T14:36:17.481Z,38
2023-05-04T14:39:42.697Z,39
2023-05-04T14:43:07.896Z,39
2023-05-04T14:46:33.175Z,38
2023-05-04T14:49:58.328Z,42
2023-05-04T14:53:23.609Z,40
2023-05-04T14:56:48.911Z,40
2023-05-04T15:00:14.132Z,43
2023-05-04T15:03:39.597Z,42
2023-05-04T15:41:07.157Z,47
2023-05-04T15:44:32.309Z,43
2023-05-04T15:47:57.782Z,47
2023-05-04T15:51:22.994Z,44
2023-05-04T15:54:48.275Z,42
2023-05-04T15:58:13.531Z,46
2023-05-04T16:01:38.742Z,45
2023-05-04T16:05:04.047Z,42
2023-05-04T16:08:29.278Z,43
2023-05-04T16:11:54.502Z,43
2023-05-04T16:15:19.828Z,43
2023-05-04T16:18:45.002Z,40
2023-05-04T16:22:10.206Z,42
2023-05-04T16:25:35.491Z,42
2023-05-04T16:29:00.700Z,44
2023-05-04T16:32:26.008Z,45
2023-05-04T16:35:51.138Z,45
2023-05-04T16:39:16.372Z,43
2023-05-04T16:42:41.548Z,48
2023-05-04T16:46:06.774Z,48
2023-05-04T16:49:32.015Z,44
2023-05-04T16:52:57.209Z,47
2023-05-04T16:56:22.527Z,48
2023-05-04T16:59:47.797Z,52
2023-05-04T17:03:13.204Z,48
2023-05-04T17:06:38.409Z,46
2023-05-04T17:10:03.707Z,46
2023-05-04T17:13:29.821Z,47
2023-05-04T17:16:55.055Z,48
2023-05-04T17:20:20.330Z,47
2023-05-04T17:23:45.663Z,52
2023-05-04T17:27:10.919Z,51
2023-05-04T17:30:36.149Z,53
2023-05-04T17:34:01.364Z,53
2023-05-04T17:37:26.602Z,56
2023-05-04T17:40:51.853Z,53
2023-05-04T17:44:17.088Z,54
2023-05-04T17:47:42.360Z,54
2023-05-04T17:51:07.546Z,54
2023-05-04T17:54:32.799Z,54
2023-05-04T17:57:58.051Z,56
2023-05-04T18:01:23.283Z,57
2023-05-04T18:04:48.552Z,57
2023-05-04T18:08:13.786Z,58
2023-05-04T18:11:38.977Z,60
2023-05-04T18:15:04.232Z,62
2023-05-04T18:18:29.423Z,62
2023-05-04T18:21:54.636Z,62
2023-05-04T18:25:19.871Z,64
2023-05-04T18:28:45.089Z,65
2023-05-04T18:32:10.353Z,63
2023-05-04T18:35:35.540Z,63
2023-05-04T18:39:00.862Z,64
2023-05-04T18:42:26.073Z,64
2023-05-04T18:45:51.308Z,65
2023-05-04T18:49:16.589Z,65
2023-05-04T18:52:41.864Z,65
2023-05-04T18:56:07.071Z,66
2023-05-04T18:59:32.290Z,66
2023-05-04T19:02:57.631Z,66
2023-05-04T19:06:22.881Z,66
2023-05-04T19:09:48.027Z,66
2023-05-04T19:13:13.388Z,67
2023-05-04T19:16:38.489Z,68
2023-05-04T19:20:03.762Z,67
2023-05-04T19:23:28.997Z,67
2023-05-04T19:26:54.185Z,68
2023-05-04T19:30:19.408Z,68
2023-05-04T19:33:48.276Z,67
2023-05-04T19:37:09.922Z,67
2023-05-04T19:40:35.181Z,68
2023-05-04T19:44:00.436Z,68
2023-05-04T19:47:25.707Z,68
2023-05-04T19:50:50.903Z,67
2023-05-04T19:54:16.138Z,68
2023-05-04T19:57:41.387Z,69
2023-05-04T20:01:06.591Z,68
2023-05-04T20:04:31.813Z,69
2023-05-04T20:07:56.993Z,68
2023-05-04T20:11:22.195Z,69
2023-05-04T20:14:47.443Z,68
2023-05-04T20:18:12.611Z,69
2023-05-04T20:21:37.774Z,67
2023-05-04T20:25:02.971Z,67
2023-05-04T20:28:28.176Z,67
2023-05-04T20:31:53.414Z,67
2023-05-04T20:35:18.563Z,66
2023-05-04T20:38:43.785Z,66
2023-05-04T20:42:08.984Z,67
2023-05-04T20:45:34.162Z,68
2023-05-04T20:48:59.396Z,68
2023-05-04T20:52:24.581Z,68
2023-05-04T20:55:49.778Z,68
2023-05-04T20:59:14.969Z,68
2023-05-04T21:02:40.254Z,68
2023-05-04T21:06:05.409Z,68
2023-05-04T21:09:30.557Z,68
2023-05-04T21:12:55.776Z,68
2023-05-04T21:16:20.966Z,68
2023-05-04T21:19:46.127Z,68
2023-05-04T21:23:11.341Z,68
2023-05-04T21:26:36.476Z,68
2023-05-04T21:30:01.703Z,68
2023-05-04T21:33:26.865Z,67
2023-05-04T21:36:52.056Z,66
2023-05-04T21:40:17.281Z,67
2023-05-04T21:43:42.465Z,67
2023-05-04T21:47:07.715Z,68
2023-05-04T21:50:32.874Z,69
2023-05-04T21:53:58.077Z,68
2023-05-04T21:57:23.272Z,68
2023-05-04T22:00:48.458Z,69
2023-05-04T22:04:13.645Z,69
2023-05-04T22:07:38.832Z,70
2023-05-04T22:11:04.006Z,70
2023-05-04T22:14:29.207Z,70
2023-05-04T22:17:54.420Z,72
2023-05-04T22:21:19.599Z,71
2023-05-04T22:24:44.775Z,71
2023-05-04T22:28:09.993Z,71
2023-05-04T22:31:35.175Z,71
2023-05-04T22:35:00.363Z,71
2023-05-04T22:38:25.576Z,71
2023-05-04T22:41:50.808Z,71
2023-05-04T22:45:15.972Z,72
2023-05-04T22:48:41.148Z,72
2023-05-04T22:52:06.319Z,72
2023-05-04T22:55:31.522Z,72
2023-05-04T22:58:56.705Z,72
2023-05-04T23:02:21.920Z,72
2023-05-04T23:05:47.145Z,73
2023-05-04T23:09:12.324Z,72
2023-05-04T23:12:37.556Z,72
2023-05-04T23:16:02.787Z,72
2023-05-04T23:19:27.916Z,72
2023-05-04T23:22:53.142Z,72
2023-05-04T23:26:18.320Z,73
2023-05-04T23:29:43.497Z,72
2023-05-04T23:33:08.720Z,73
2023-05-04T23:36:33.881Z,71
2023-05-04T23:39:59.057Z,72
2023-05-04T23:43:24.195Z,72
2023-05-04T23:46:49.395Z,72
2023-05-04T23:50:14.588Z,72
2023-05-04T23:53:39.782Z,72
2023-05-04T23:57:05.010Z,71
